• Join FlightAware (Why Join?)
  • Login
  • US Flag 
10:56AM EDT


 

Airport Tracker/Info


-or-


 

Live Flight TrackerFlight Track Log ✈ N550BF ✈ 04-Aug-2013 ✈ KNEW - KTKI

Flight Track Log - Related Links

Times and Time Zones

All times are in EDT time to prevent confusion due to time zone crossing. See the N550BF flight status page for this flight to view local times or setup timezone preferences in your user account.

Time Position Orientation Groundspeed Altitude Reporting Facility
EDT Latitude Longitude Course Direction KTS MPH feet Rate Location/Type
02:23PM 30.0569 -90.0297 333° Northwest 107 123 400  Level Houston Center
02:25PM 30.0953 -90.0519 333° Northwest 130 150 1,300 660 Climbing Houston Center
02:26PM 30.1233 -90.0781 321° Northwest 134 154 2,100 840 Climbing Houston Center
02:27PM 30.1553 -90.1000 329° Northwest 136 157 3,100 900 Climbing Houston Center
02:28PM 30.1728 -90.1258 308° West 137 158 3,800 780 Climbing Houston Center
02:29PM 30.1869 -90.1756 288° West 138 159 4,700 780 Climbing Houston Center
02:30PM 30.2006 -90.2136 292° West 136 157 5,500 780 Climbing Houston Center
02:31PM 30.2144 -90.2564 291° West 144 166 6,300 840 Climbing Houston Center
02:32PM 30.2306 -90.3061 291° West 150 173 7,300 720 Climbing Houston Center
02:33PM 30.2503 -90.3558 295° West 148 170 8,100 780 Climbing Houston Center
02:34PM 30.2667 -90.3986 294° West 153 176 9,000 780 Climbing Houston Center
02:35PM 30.2969 -90.4325 316° Northwest 148 170 9,800 660 Climbing Houston Center
02:36PM 30.3433 -90.4597 333° Northwest 153 176 10,500 300 Climbing Houston Center
02:37PM 30.3914 -90.4794 341° North 178 205 10,500  Level Houston Center
02:38PM 30.4411 -90.4972 343° North 187 215 10,500 -60 Level Houston Center
02:39PM 30.4875 -90.5242 333° Northwest 191 220 10,400 -60 Descending Houston Center
02:40PM 30.5094 -90.5761 296° West 178 205 10,400  Level Houston Center
02:41PM 30.5294 -90.6278 294° West 174 200 10,400  Level Houston Center
02:42PM 30.5547 -90.6897 295° West 176 203 10,400  Level Houston Center
02:43PM 30.5750 -90.7414 295° West 175 201 10,400  Level Houston Center
02:44PM 30.5958 -90.7931 295° West 176 203 10,400  Level Houston Center
02:45PM 30.6164 -90.8442 295° West 175 201 10,400  Level Houston Center
02:46PM 30.6411 -90.8942 300° West 176 203 10,400  Level Houston Center
02:48PM 30.6644 -90.9428 299° West 174 200 10,400  Level Houston Center
02:49PM 30.6947 -91.0017 301° West 175 201 10,400  Level Houston Center
02:50PM 30.7203 -91.0489 302° West 173 199 10,400  Level Houston Center
02:51PM 30.7494 -91.0953 306° West 175 201 10,400  Level Houston Center
02:52PM 30.7756 -91.1408 304° West 179 206 10,500  Climbing Houston Center
02:53PM 30.8108 -91.1953 307° West 177 204 10,500  Level Houston Center
02:54PM 30.8417 -91.2403 309° West 178 205 10,500  Level Houston Center
02:55PM 30.8739 -91.2847 310° West 178 205 10,500  Level Houston Center
02:56PM 30.9083 -91.3272 313° West 180 207 10,500  Level Houston Center
02:57PM 30.9431 -91.3692 314° West 180 207 10,500  Level Houston Center
02:58PM 30.9789 -91.4108 315° West 182 209 10,500  Level Houston Center
02:59PM 31.0206 -91.4603 315° West 179 206 10,500  Level Houston Center
03:00PM 31.0558 -91.5011 315° West 179 206 10,500  Level Houston Center
03:01PM 31.0825 -91.5489 303° West 178 205 10,500  Level Houston Center
03:02PM 31.1069 -91.5986 300° West 177 204 10,500  Level Houston Center
03:03PM 31.1300 -91.6500 298° West 178 205 10,500  Level Houston Center
03:04PM 31.1583 -91.7092 299° West 174 200 10,500  Level Houston Center
03:05PM 31.1828 -91.7594 300° West 177 204 10,500  Level Houston Center
03:06PM 31.2058 -91.8094 298° West 176 203 10,500  Level Houston Center
03:07PM 31.2308 -91.8606 300° West 179 206 10,500  Level Houston Center
03:08PM 31.2553 -91.9108 300° West 179 206 10,500  Level Houston Center
03:09PM 31.2797 -91.9603 300° West 178 205 10,500  Level Houston Center
03:10PM 31.3083 -92.0219 299° West 179 206 10,500  Level Houston Center
03:11PM 31.3328 -92.0733 299° West 180 207 10,500  Level Houston Center
03:12PM 31.3567 -92.1236 299° West 179 206 10,500  Level Houston Center
03:13PM 31.3800 -92.1728 299° West 175 201 10,500  Level Houston Center
03:14PM 31.4047 -92.2242 299° West 179 206 10,500  Level Houston Center
03:15PM 31.4336 -92.2847 299° West 179 206 10,500  Level Houston Center
03:16PM 31.4581 -92.3361 299° West 181 208 10,500  Level Houston Center
03:18PM 31.4831 -92.3864 300° West 179 206 10,500  Level Houston Center
03:19PM 31.5067 -92.4375 298° West 180 207 10,500  Level Houston Center
03:20PM 31.5308 -92.4883 299° West 180 207 10,500  Level Houston Center
03:21PM 31.5611 -92.5508 300° West 184 212 10,500  Level Houston Center
03:22PM 31.5858 -92.6019 300° West 182 209 10,500  Level Houston Center
03:23PM 31.6103 -92.6528 299° West 181 208 10,500  Level Houston Center
03:24PM 31.6344 -92.7019 300° West 181 208 10,500  Level Houston Center
03:24PM 31.6586 -92.7514 300° West 181 208 10,500  Level Houston Center
03:25PM 31.6764 -92.8011 293° West 176 203 10,500  Level Houston Center
03:27PM 31.6947 -92.8583 291° West 177 204 10,500  Level Houston Center
03:28PM 31.7106 -92.9108 290° West 176 203 10,500  Level Houston Center
03:29PM 31.7286 -92.9656 291° West 178 205 10,500  Level Houston Center
03:29PM 31.7419 -93.0108 289° West 178 205 10,500  Level Houston Center
03:30PM 31.7514 -93.0347 295° West 178 205 10,500  Level Houston Center
03:31PM 31.7678 -93.0886 290° West 177 204 10,500  Level Houston Center
03:32PM 31.7889 -93.1547 291° West 178 205 10,500  Level Houston Center
03:33PM 31.8067 -93.2081 291° West 178 205 10,500  Level Houston Center
03:34PM 31.8261 -93.2617 293° West 179 206 10,500  Level Houston Center
03:35PM 31.8442 -93.3147 292° West 176 203 10,500  Level Houston Center
03:36PM 31.8642 -93.3669 294° West 174 200 10,500  Level Houston Center
03:37PM 31.8878 -93.4306 294° West 177 204 10,500  Level Houston Center
03:38PM 31.9078 -93.4831 294° West 176 203 10,500  Level Houston Center
03:39PM 31.9300 -93.5350 297° West 177 204 10,500 60 Level Houston Center
03:40PM 31.9492 -93.5867 294° West 174 200 10,700 240 Climbing Houston Center
03:41PM 31.9717 -93.6333 300° West 165 190 11,000 240 Climbing Houston Center
03:42PM 31.9922 -93.6794 298° West 161 185 11,300 240 Climbing Houston Center
03:43PM 32.0186 -93.7350 299° West 162 186 11,600 240 Climbing Houston Center
03:44PM 32.0414 -93.7808 300° West 162 186 11,900 240 Climbing Houston Center
03:45PM 32.0656 -93.8214 305° West 166 191 12,200 240 Climbing Houston Center
03:46PM 32.0981 -93.8744 306° West 167 192 12,500 240 Climbing Houston Center
03:48PM 32.1242 -93.9189 305° West 167 192 12,800 300 Climbing Houston Center
03:49PM 32.1519 -93.9758 300° West 166 191 13,200 300 Climbing Fort Worth Center
03:50PM 32.1761 -94.0239 301° West 165 190 13,500 180 Climbing Fort Worth Center
03:50PM 32.1933 -94.0428 317° Northwest 174 200 13,500  Level Fort Worth Center
03:51PM 32.2219 -94.0958 303° West 180 207 13,500  Level Fort Worth Center
03:52PM 32.2419 -94.1392 299° West 180 207 13,500  Level Fort Worth Center
03:53PM 32.2706 -94.1972 300° West 180 207 13,500  Level Fort Worth Center
03:54PM 32.2925 -94.2456 298° West 180 207 13,500  Level Fort Worth Center
03:55PM 32.3169 -94.2989 298° West 180 207 13,500  Level Fort Worth Center
03:56PM 32.3411 -94.3497 299° West 180 207 13,500  Level Fort Worth Center
03:57PM 32.3675 -94.4053 299° West 180 207 13,500  Level Fort Worth Center
03:58PM 32.3894 -94.4539 298° West 180 207 13,500  Level Fort Worth Center
03:59PM 32.4178 -94.5094 301° West 180 207 13,500  Level Fort Worth Center
04:00PM 32.4356 -94.5508 297° West 169 194 13,500  Level Fort Worth Center
04:01PM 32.4597 -94.6042 298° West 169 194 13,500  Level Fort Worth Center
04:02PM 32.4858 -94.6575 300° West 176 203 13,500  Level Fort Worth Center
04:03PM 32.5100 -94.7086 299° West 181 208 13,500 -120 Level Fort Worth Center
04:04PM 32.5342 -94.7619 298° West 181 208 13,300 -480 Descending Fort Worth Center
04:05PM 32.5625 -94.8178 301° West 181 208 12,600 -780 Descending Fort Worth Center
04:06PM 32.5908 -94.8761 300° West 191 220 11,800 -840 Descending Fort Worth Center
04:07PM 32.6211 -94.9344 302° West 201 231 11,000 -720 Descending Fort Worth Center
04:08PM 32.6514 -94.9928 302° West 201 231 10,400 -660 Descending Fort Worth Center
04:09PM 32.6817 -95.0464 304° West 201 231 9,700 -720 Descending Fort Worth Center
04:10PM 32.7119 -95.1000 304° West 201 231 9,000 -780 Descending Fort Worth Center
04:11PM 32.7422 -95.1511 305° West 194 223 8,200 -900 Descending Fort Worth Center
04:12PM 32.7744 -95.2094 303° West 194 223 7,300 -900 Descending Fort Worth Center
04:13PM 32.7881 -95.2683 285° West 189 217 6,400 -900 Descending Fort Worth Center
04:14PM 32.8014 -95.3275 285° West 194 223 5,500 -900 Descending Fort Worth Center
04:15PM 32.8150 -95.3889 285° West 188 216 4,700 -540 Descending Fort Worth Center
04:16PM 32.8306 -95.4431 289° West 183 211 4,500 -120 Descending Fort Worth Center
04:17PM 32.8417 -95.4972 284° West 178 205 4,500 -120 Level Fort Worth Center
04:18PM 32.8572 -95.5511 289° West 178 205 4,300 -60 Descending Fort Worth Center
04:19PM 32.8769 -95.6128 291° West 178 205 4,400  Climbing Fort Worth Center
04:20PM 32.8900 -95.6594 288° West 178 205 4,400  Level Fort Worth Center
04:21PM 32.9075 -95.7183 290° West 173 199 4,500  Climbing Fort Worth Center
04:22PM 32.9228 -95.7603 293° West 167 192 4,500  Level Fort Worth Center
04:23PM 32.9422 -95.8167 292° West 167 192 4,500 -60 Level Fort Worth Center
04:24PM 32.9553 -95.8636 288° West 167 192 4,400 -60 Descending Fort Worth Center
04:25PM 32.9750 -95.9228 292° West 167 192 4,400  Level Fort Worth Center
04:26PM 32.9900 -95.9669 292° West 167 192 4,400 -60 Level Fort Worth Center
04:27PM 33.0072 -96.0236 290° West 167 192 4,300 -120 Descending Fort Worth Center
04:28PM 33.0203 -96.0706 288° West 162 186 4,200  Descending Fort Worth Center
04:29PM 33.0417 -96.1222 296° West 162 186 4,300 120 Climbing Fort Worth Center
04:30PM 33.0589 -96.1717 293° West 170 196 4,500  Climbing Fort Worth Center
04:31PM 33.0783 -96.2258 293° West 170 196 4,400 -60 Descending Fort Worth Center
04:32PM 33.0956 -96.2728 294° West 170 196 4,400 -120 Level Fort Worth Center
04:33PM 33.1147 -96.3297 292° West 170 196 4,200 -240 Descending Fort Worth Center
04:34PM 33.1297 -96.3789 290° West 170 196 4,000 -360 Descending Fort Worth Center
04:35PM 33.1500 -96.4167 303° West 179 206 3,600 -540 Descending Dallas / Fort Worth TRACON
04:36PM 33.1667 -96.4667 292° West 179 206 3,100 -780 Descending Dallas / Fort Worth TRACON
04:37PM 33.2000 -96.5167 309° West 169 194 2,200 -780 Descending Dallas / Fort Worth TRACON
04:38PM 33.2167 -96.5667 292° West 142 163 1,600 -420 Descending Dallas / Fort Worth TRACON
04:40PM 33.1878 -96.6117 233° Southwest 77 89 900 3,600 Descending Fort Worth Center
04:41PM 33.1775 -96.6317 238° Southwest 77 89 13,500 6,300 Climbing Fort Worth Center
04:42PM 33.1672 -96.6492 235° Southwest 77 89 13,500  Level Fort Worth Center
04:43PM 33.1569 -96.6692 238° Southwest 77 89 13,500  Level Fort Worth Center
04:44PM 33.1547 -96.6714 220° Southwest 77 89 13,500  Level Fort Worth Center
04:46PM 33.1724 -96.6062 90° East  Level Estimated